Seabourn Spirit — C6FR4 — position and weather

sailwx.info

Track history (hours):
 
Tides and Currents Weather Stations Pressure Air Temp Water Temp Dewpoint Dewpoint Depression Visibility Wind Speed Wind Dir Waves Ship Positions

Seabourn Spirit

Operator: Cunard Seabourn

Last reported at 2017-Sep-18 05:13 UTC. Time now 2017-Sep-23 02:21 UTC.
Position N 37°55' E 023°00'.

Length 133 m; draft 5.4 m.

Type: Ship. MMSI: 311083000.

Date/timePositionNaut miles runAvg speedWind from/ knotsBaromVisibWave heightAir tempDewpointWater temp
2017-Sep-18 05:13N 37°55' E 023°00'1 5.3
2017-Sep-18 04:59N 37°54' E 023°02'4 7.7
2017-Sep-18 04:30N 37°53' E 023°06'5 9.9
2017-Sep-18 04:00N 37°51' E 023°12'611.5
2017-Sep-18 03:31N 37°45' E 023°13'510.7
2017-Sep-18 03:00N 37°40' E 023°15'612.0
2017-Sep-18 02:30N 37°40' E 023°23'611.7
2017-Sep-18 02:00N 37°37' E 023°30'611.3
2017-Sep-18 01:31N 37°33' E 023°34'611.3
2017-Sep-18 01:00N 37°28' E 023°38'611.6
2017-Sep-18 00:31N 37°23' E 023°41'510.7
2017-Sep-18 00:00N 37°18' E 023°39'612.2
2017-Sep-17 23:31N 37°14' E 023°33'611.1
2017-Sep-17 23:00N 37°11' E 023°27'611.8
2017-Sep-17 22:30N 37°11' E 023°20'5 0.2
2017-Sep-16 22:47N 37°11' E 023°13'3 9.1
2017-Sep-16 22:26N 37°11' E 023°17'4 9.0
2017-Sep-16 21:58N 37°10' E 023°22'4 8.9
2017-Sep-16 21:30N 37°10' E 023°28'4 8.9
2017-Sep-16 21:00N 37°10' E 023°33'4 8.6
2017-Sep-16 20:31N 37°10' E 023°39'13 6.7
2017-Sep-16 18:33N 37°21' E 023°48'0 8.2
2017-Sep-16 18:30N 37°21' E 023°48'8 8.7
2017-Sep-16 17:37N 37°29' E 023°46'1 8.6
2017-Sep-16 17:27N 37°30' E 023°45'4 8.6
2017-Sep-16 16:55N 37°35' E 023°44'4 8.7
2017-Sep-16 16:30N 37°38' E 023°43'4 8.7
2017-Sep-16 16:00N 37°42' E 023°41'4 8.9
2017-Sep-16 15:30N 37°46' E 023°38'5 9.8
2017-Sep-16 15:00N 37°51' E 023°36'510.8
2017-Sep-16 14:31N 37°56' E 023°37'1 1.7
2017-Sep-16 13:59N 37°56' E 023°38'0 0.0
2017-Sep-16 13:29N 37°56' E 023°38'0 0.0
2017-Sep-16 12:59N 37°56' E 023°38'0 0.0
2017-Sep-16 12:29N 37°56' E 023°38'0 0.0
2017-Sep-16 11:59N 37°56' E 023°38'0 0.0
2017-Sep-16 11:29N 37°56' E 023°38'0 0.0
2017-Sep-16 10:59N 37°56' E 023°38'0 0.0
2017-Sep-16 10:29N 37°56' E 023°38'0 0.0
2017-Sep-16 09:59N 37°56' E 023°38'0 0.0
2017-Sep-16 09:29N 37°56' E 023°38'0 0.0
2017-Sep-16 08:59N 37°56' E 023°38'0 0.0
2017-Sep-16 08:29N 37°56' E 023°38'0 0.0
2017-Sep-16 07:56N 37°56' E 023°38'0 0.0
2017-Sep-16 07:29N 37°56' E 023°38'0 0.0
2017-Sep-16 06:59N 37°56' E 023°38'0 0.0
2017-Sep-16 06:29N 37°56' E 023°38'0 0.0
2017-Sep-16 05:59N 37°56' E 023°38'0 0.0
2017-Sep-16 05:29N 37°56' E 023°38'0 0.0
2017-Sep-16 04:59N 37°56' E 023°38'0 0.0
2017-Sep-16 04:29N 37°56' E 023°38'0 0.0
2017-Sep-16 03:53N 37°56' E 023°38'0 0.2
2017-Sep-16 03:30N 37°56' E 023°38'2 3.1
2017-Sep-16 03:00N 37°55' E 023°37'1 2.7
2017-Sep-16 02:30N 37°54' E 023°37'3 5.6
2017-Sep-16 02:00N 37°52' E 023°39'3 6.4
2017-Sep-16 01:30N 37°49' E 023°40'3 6.8
2017-Sep-16 01:00N 37°46' E 023°42'3 6.2
2017-Sep-16 00:30N 37°43' E 023°44'3 6.4
2017-Sep-16 00:00N 37°40' E 023°45'3 6.6
2017-Sep-15 23:30N 37°36' E 023°46'4 7.0
2017-Sep-15 23:00N 37°33' E 023°46'4 7.9
2017-Sep-15 22:30N 37°29' E 023°46'4 8.8
2017-Sep-15 22:00N 37°25' E 023°48'4 8.3
2017-Sep-15 21:30N 37°21' E 023°49'3 6.5
2017-Sep-15 21:00N 37°18' E 023°50'3 5.7
2017-Sep-15 20:30N 37°15' E 023°49'3 6.7
2017-Sep-15 20:00N 37°13' E 023°46'4 7.5
2017-Sep-15 19:30N 37°10' E 023°42'5 9.3
2017-Sep-15 19:00N 37°09' E 023°37'714.2
2017-Sep-15 18:30N 37°09' E 023°28'35 2.1
2017-Sep-15 02:00N 37°28' E 022°51'24 8.5
2017-Sep-14 23:08N 37°10' E 023°12'1 9.5
2017-Sep-14 23:00N 37°10' E 023°14'5 9.4
2017-Sep-14 22:30N 37°10' E 023°20'5 9.6
2017-Sep-14 22:00N 37°09' E 023°26'5 9.5
2017-Sep-14 21:30N 37°09' E 023°32'5 8.7
2017-Sep-14 20:56N 37°12' E 023°36'4 9.6
2017-Sep-14 20:30N 37°16' E 023°39'611.0
2017-Sep-14 20:00N 37°20' E 023°42'511.0
2017-Sep-14 19:30N 37°26' E 023°41'611.8
2017-Sep-14 19:00N 37°31' E 023°37'612.0
2017-Sep-14 18:30N 37°35' E 023°33'611.3
2017-Sep-14 18:00N 37°39' E 023°27'611.4
2017-Sep-14 17:30N 37°39' E 023°20'510.9
2017-Sep-14 17:00N 37°41' E 023°13'611.0
2017-Sep-14 16:30N 37°47' E 023°13'5 9.3
2017-Sep-14 16:00N 37°51' E 023°11'5 9.2
2017-Sep-14 15:30N 37°53' E 023°05'  
2017-Sep-08 21:08N 44°17' E 013°52'313.3
2017-Sep-08 20:53N 44°20' E 013°49'1013.2
2017-Sep-08 20:06N 44°28' E 013°42'112.6
2017-Sep-08 20:00N 44°29' E 013°41'612.9
2017-Sep-08 19:30N 44°35' E 013°36'613.0
2017-Sep-08 19:00N 44°40' E 013°31'713.1
2017-Sep-08 18:30N 44°46' E 013°26'713.0
2017-Sep-08 17:59N 44°51' E 013°21'613.3
2017-Sep-08 17:30N 44°56' E 013°15'713.2
2017-Sep-08 17:00N 45°01' E 013°09'713.3
2017-Sep-08 16:30N 45°06' E 013°02'713.5
2017-Sep-08 16:00N 45°10' E 012°55'713.4
2017-Sep-08 15:30N 45°15' E 012°48'713.4
2017-Sep-08 15:00N 45°19' E 012°40'713.2
2017-Sep-08 14:30N 45°22' E 012°32'613.0
2017-Sep-08 14:01N 45°26' E 012°25'3 5.4
2017-Sep-08 13:30N 45°26' E 012°21'2 2.8
2017-Sep-08 12:56N 45°26' E 012°19'0 0.0
2017-Sep-08 12:29N 45°26' E 012°19'0 0.0
2017-Sep-08 12:00N 45°26' E 012°19'0 0.0
2017-Sep-08 11:30N 45°26' E 012°19'0 0.0
2017-Sep-08 11:00N 45°26' E 012°19'0 0.0
2017-Sep-08 10:29N 45°26' E 012°19'0 0.0
2017-Sep-08 09:56N 45°26' E 012°19'0 0.0
2017-Sep-08 09:26N 45°26' E 012°19'0 0.0
2017-Sep-08 08:59N 45°26' E 012°19'0 0.0
2017-Sep-08 08:30N 45°26' E 012°19'0 0.0
2017-Sep-08 07:56N 45°26' E 012°19'0 0.0
2017-Sep-08 07:27N 45°26' E 012°19'0 0.0
2017-Sep-08 07:00N 45°26' E 012°19'0 0.0
2017-Sep-08 06:30N 45°26' E 012°19'0 0.0
2017-Sep-08 05:56N 45°26' E 012°19'0 0.0
2017-Sep-08 05:29N 45°26' E 012°19'  
Track history (hours):
 
Tides and Currents Weather Stations Pressure Air Temp Water Temp Dewpoint Dewpoint Depression Visibility Wind Speed Wind Dir Waves Ship Positions

Seabourn Spirit

Operator: Cunard Seabourn

Last reported at 2017-Sep-18 05:13 UTC. Time now 2017-Sep-23 02:21 UTC.
Position N 37°55' E 023°00'.

Length 133 m; draft 5.4 m.

Type: Ship. MMSI: 311083000.

Date/timePositionNaut miles runAvg speedWind from/ knotsBaromVisibWave heightAir tempDewpointWater temp
2017-Sep-18 05:13N 37°55' E 023°00'1 5.3
2017-Sep-18 04:59N 37°54' E 023°02'4 7.7
2017-Sep-18 04:30N 37°53' E 023°06'5 9.9
2017-Sep-18 04:00N 37°51' E 023°12'611.5
2017-Sep-18 03:31N 37°45' E 023°13'510.7
2017-Sep-18 03:00N 37°40' E 023°15'612.0
2017-Sep-18 02:30N 37°40' E 023°23'611.7
2017-Sep-18 02:00N 37°37' E 023°30'611.3
2017-Sep-18 01:31N 37°33' E 023°34'611.3
2017-Sep-18 01:00N 37°28' E 023°38'611.6
2017-Sep-18 00:31N 37°23' E 023°41'510.7
2017-Sep-18 00:00N 37°18' E 023°39'612.2
2017-Sep-17 23:31N 37°14' E 023°33'611.1
2017-Sep-17 23:00N 37°11' E 023°27'611.8
2017-Sep-17 22:30N 37°11' E 023°20'5 0.2
2017-Sep-16 22:47N 37°11' E 023°13'3 9.1
2017-Sep-16 22:26N 37°11' E 023°17'4 9.0
2017-Sep-16 21:58N 37°10' E 023°22'4 8.9
2017-Sep-16 21:30N 37°10' E 023°28'4 8.9
2017-Sep-16 21:00N 37°10' E 023°33'4 8.6
2017-Sep-16 20:31N 37°10' E 023°39'13 6.7
2017-Sep-16 18:33N 37°21' E 023°48'0 8.2
2017-Sep-16 18:30N 37°21' E 023°48'8 8.7
2017-Sep-16 17:37N 37°29' E 023°46'1 8.6
2017-Sep-16 17:27N 37°30' E 023°45'4 8.6
2017-Sep-16 16:55N 37°35' E 023°44'4 8.7
2017-Sep-16 16:30N 37°38' E 023°43'4 8.7
2017-Sep-16 16:00N 37°42' E 023°41'4 8.9
2017-Sep-16 15:30N 37°46' E 023°38'5 9.8
2017-Sep-16 15:00N 37°51' E 023°36'510.8
2017-Sep-16 14:31N 37°56' E 023°37'1 1.7
2017-Sep-16 13:59N 37°56' E 023°38'0 0.0
2017-Sep-16 13:29N 37°56' E 023°38'0 0.0
2017-Sep-16 12:59N 37°56' E 023°38'0 0.0
2017-Sep-16 12:29N 37°56' E 023°38'0 0.0
2017-Sep-16 11:59N 37°56' E 023°38'0 0.0
2017-Sep-16 11:29N 37°56' E 023°38'0 0.0
2017-Sep-16 10:59N 37°56' E 023°38'0 0.0
2017-Sep-16 10:29N 37°56' E 023°38'0 0.0
2017-Sep-16 09:59N 37°56' E 023°38'0 0.0
2017-Sep-16 09:29N 37°56' E 023°38'0 0.0
2017-Sep-16 08:59N 37°56' E 023°38'0 0.0
2017-Sep-16 08:29N 37°56' E 023°38'0 0.0
2017-Sep-16 07:56N 37°56' E 023°38'0 0.0
2017-Sep-16 07:29N 37°56' E 023°38'0 0.0
2017-Sep-16 06:59N 37°56' E 023°38'0 0.0
2017-Sep-16 06:29N 37°56' E 023°38'0 0.0
2017-Sep-16 05:59N 37°56' E 023°38'0 0.0
2017-Sep-16 05:29N 37°56' E 023°38'0 0.0
2017-Sep-16 04:59N 37°56' E 023°38'0 0.0
2017-Sep-16 04:29N 37°56' E 023°38'0 0.0
2017-Sep-16 03:53N 37°56' E 023°38'0 0.2
2017-Sep-16 03:30N 37°56' E 023°38'2 3.1
2017-Sep-16 03:00N 37°55' E 023°37'1 2.7
2017-Sep-16 02:30N 37°54' E 023°37'3 5.6
2017-Sep-16 02:00N 37°52' E 023°39'3 6.4
2017-Sep-16 01:30N 37°49' E 023°40'3 6.8
2017-Sep-16 01:00N 37°46' E 023°42'3 6.2
2017-Sep-16 00:30N 37°43' E 023°44'3 6.4
2017-Sep-16 00:00N 37°40' E 023°45'3 6.6
2017-Sep-15 23:30N 37°36' E 023°46'4 7.0
2017-Sep-15 23:00N 37°33' E 023°46'4 7.9
2017-Sep-15 22:30N 37°29' E 023°46'4 8.8
2017-Sep-15 22:00N 37°25' E 023°48'4 8.3
2017-Sep-15 21:30N 37°21' E 023°49'3 6.5
2017-Sep-15 21:00N 37°18' E 023°50'3 5.7
2017-Sep-15 20:30N 37°15' E 023°49'3 6.7
2017-Sep-15 20:00N 37°13' E 023°46'4 7.5
2017-Sep-15 19:30N 37°10' E 023°42'5 9.3
2017-Sep-15 19:00N 37°09' E 023°37'714.2
2017-Sep-15 18:30N 37°09' E 023°28'35 2.1
2017-Sep-15 02:00N 37°28' E 022°51'24 8.5
2017-Sep-14 23:08N 37°10' E 023°12'1 9.5
2017-Sep-14 23:00N 37°10' E 023°14'5 9.4
2017-Sep-14 22:30N 37°10' E 023°20'5 9.6
2017-Sep-14 22:00N 37°09' E 023°26'5 9.5
2017-Sep-14 21:30N 37°09' E 023°32'5 8.7
2017-Sep-14 20:56N 37°12' E 023°36'4 9.6
2017-Sep-14 20:30N 37°16' E 023°39'611.0
2017-Sep-14 20:00N 37°20' E 023°42'511.0
2017-Sep-14 19:30N 37°26' E 023°41'611.8
2017-Sep-14 19:00N 37°31' E 023°37'612.0
2017-Sep-14 18:30N 37°35' E 023°33'611.3
2017-Sep-14 18:00N 37°39' E 023°27'611.4
2017-Sep-14 17:30N 37°39' E 023°20'510.9
2017-Sep-14 17:00N 37°41' E 023°13'611.0
2017-Sep-14 16:30N 37°47' E 023°13'5 9.3
2017-Sep-14 16:00N 37°51' E 023°11'5 9.2
2017-Sep-14 15:30N 37°53' E 023°05'  
2017-Sep-08 21:08N 44°17' E 013°52'313.3
2017-Sep-08 20:53N 44°20' E 013°49'1013.2
2017-Sep-08 20:06N 44°28' E 013°42'112.6
2017-Sep-08 20:00N 44°29' E 013°41'612.9
2017-Sep-08 19:30N 44°35' E 013°36'613.0
2017-Sep-08 19:00N 44°40' E 013°31'713.1
2017-Sep-08 18:30N 44°46' E 013°26'713.0
2017-Sep-08 17:59N 44°51' E 013°21'613.3
2017-Sep-08 17:30N 44°56' E 013°15'713.2
2017-Sep-08 17:00N 45°01' E 013°09'713.3
2017-Sep-08 16:30N 45°06' E 013°02'713.5
2017-Sep-08 16:00N 45°10' E 012°55'713.4
2017-Sep-08 15:30N 45°15' E 012°48'713.4
2017-Sep-08 15:00N 45°19' E 012°40'713.2
2017-Sep-08 14:30N 45°22' E 012°32'613.0
2017-Sep-08 14:01N 45°26' E 012°25'3 5.4
2017-Sep-08 13:30N 45°26' E 012°21'2 2.8
2017-Sep-08 12:56N 45°26' E 012°19'0 0.0
2017-Sep-08 12:29N 45°26' E 012°19'0 0.0
2017-Sep-08 12:00N 45°26' E 012°19'0 0.0
2017-Sep-08 11:30N 45°26' E 012°19'0 0.0
2017-Sep-08 11:00N 45°26' E 012°19'0 0.0
2017-Sep-08 10:29N 45°26' E 012°19'0 0.0
2017-Sep-08 09:56N 45°26' E 012°19'0 0.0
2017-Sep-08 09:26N 45°26' E 012°19'0 0.0
2017-Sep-08 08:59N 45°26' E 012°19'0 0.0
2017-Sep-08 08:30N 45°26' E 012°19'0 0.0
2017-Sep-08 07:56N 45°26' E 012°19'0 0.0
2017-Sep-08 07:27N 45°26' E 012°19'0 0.0
2017-Sep-08 07:00N 45°26' E 012°19'0 0.0
2017-Sep-08 06:30N 45°26' E 012°19'0 0.0
2017-Sep-08 05:56N 45°26' E 012°19'0 0.0
2017-Sep-08 05:29N 45°26' E 012°19'  

Dump ship's entire track history